createdAt,value
2023-09-03T03:52:24.797Z,6.15
2023-09-03T04:09:41.010Z,10.73
2023-09-03T04:12:10.737Z,10.77
2023-09-03T05:00:46.929Z,13.05
2023-09-03T05:03:14.252Z,11.98
2023-09-03T05:05:43.562Z,13.63
2023-09-03T05:08:12.302Z,11.75
2023-09-03T05:10:42.435Z,12.88
2023-09-03T05:13:11.540Z,12.20
2023-09-03T05:15:39.185Z,10.60
2023-09-03T05:18:06.358Z,10.93
2023-09-03T05:20:38.891Z,11.03
2023-09-03T05:23:06.689Z,13.40
2023-09-03T05:25:35.170Z,12.55
2023-09-03T05:28:02.945Z,13.10
2023-09-03T05:30:31.315Z,12.77
2023-09-03T05:33:00.224Z,10.50
2023-09-03T05:37:57.014Z,11.73
2023-09-03T05:40:24.264Z,10.93
2023-09-03T05:42:50.987Z,11.13
2023-09-03T05:45:19.806Z,10.77
2023-09-03T05:47:47.199Z,10.00
2023-09-03T05:50:14.487Z,9.10
2023-09-03T05:52:44.581Z,8.95
2023-09-03T05:55:11.447Z,9.18
2023-09-03T05:57:39.340Z,8.30
2023-09-03T06:00:07.420Z,9.40
2023-09-03T06:02:37.832Z,8.30
2023-09-03T06:05:06.025Z,8.05
2023-09-03T06:07:32.651Z,9.00
2023-09-03T06:09:59.745Z,8.75
2023-09-03T06:12:27.398Z,8.27
2023-09-03T06:14:54.505Z,9.60
2023-09-03T06:17:21.580Z,7.90
2023-09-03T06:19:49.951Z,8.95
2023-09-03T06:22:17.012Z,10.43
2023-09-03T06:24:44.638Z,10.95
2023-09-03T06:27:11.553Z,11.80
2023-09-03T06:29:38.667Z,11.55
2023-09-03T06:32:05.614Z,13.95
2023-09-03T06:34:32.956Z,13.50
2023-09-03T06:37:00.515Z,12.50
2023-09-03T06:39:27.701Z,12.90
2023-09-03T06:41:54.784Z,12.07
2023-09-03T06:44:23.141Z,11.00
2023-09-03T06:46:49.869Z,13.85
2023-09-03T06:49:17.065Z,14.00
2023-09-03T06:51:44.135Z,16.08
2023-09-03T06:54:10.779Z,13.45
2023-09-03T06:56:38.781Z,12.63
2023-09-03T06:59:05.402Z,12.65
2023-09-03T07:01:33.172Z,14.18
2023-09-03T07:04:00.906Z,12.73
2023-09-03T07:06:27.551Z,10.90
2023-09-03T07:08:55.218Z,10.45
2023-09-03T07:11:21.879Z,8.73
2023-09-03T07:13:50.291Z,8.95
2023-09-03T07:16:17.933Z,9.43
2023-09-03T07:18:44.549Z,7.28
2023-09-03T07:21:12.105Z,8.40
2023-09-03T07:23:39.010Z,7.28
2023-09-03T07:26:07.923Z,6.60
2023-09-03T07:28:35.434Z,5.18
2023-09-03T07:31:02.544Z,4.00
2023-09-03T07:33:30.836Z,3.92
2023-09-03T07:35:58.504Z,3.80
2023-09-03T07:38:28.286Z,4.03
2023-09-03T07:40:55.974Z,2.83
2023-09-03T07:43:23.288Z,3.10
2023-09-03T07:45:51.676Z,3.38
2023-09-03T07:48:18.603Z,3.00
2023-09-03T07:50:45.795Z,2.53
2023-09-03T07:53:13.642Z,2.90
2023-09-03T07:55:40.297Z,3.47
2023-09-03T07:58:08.069Z,3.63
2023-09-03T08:00:34.783Z,2.53
2023-09-03T08:03:02.277Z,2.67
2023-09-03T08:05:29.721Z,2.85
2023-09-03T08:07:56.608Z,2.40
2023-09-03T08:10:24.387Z,2.75
2023-09-03T08:12:53.567Z,2.65
2023-09-03T08:15:33.573Z,2.90
2023-09-03T08:18:08.369Z,2.40
2023-09-03T08:20:35.006Z,2.70
2023-09-03T08:23:02.584Z,2.65
2023-09-03T08:25:30.550Z,3.10
2023-09-03T08:27:57.740Z,1.83
2023-09-03T08:30:25.298Z,2.63
2023-09-03T08:32:51.991Z,2.70
2023-09-03T08:35:19.623Z,2.30
2023-09-03T08:37:46.275Z,2.10
2023-09-03T08:40:14.011Z,2.55
2023-09-03T08:42:44.313Z,1.80
2023-09-03T08:45:13.374Z,2.20
2023-09-03T08:47:43.279Z,1.95
2023-09-03T08:50:11.782Z,2.08
2023-09-03T08:52:43.600Z,2.10
2023-09-03T08:55:15.481Z,1.95
2023-09-03T08:57:43.226Z,1.80
2023-09-03T09:00:13.390Z,1.73
2023-09-03T09:02:43.953Z,2.03
2023-09-03T09:05:12.206Z,1.73
2023-09-03T09:07:39.539Z,1.55
2023-09-03T09:10:10.379Z,1.92
2023-09-03T09:13:03.748Z,1.98
2023-09-03T09:15:31.699Z,1.70
2023-09-03T09:17:58.671Z,1.90
2023-09-03T09:20:26.380Z,1.67
2023-09-03T09:22:53.109Z,1.40
2023-09-03T09:25:23.178Z,1.67
2023-09-03T09:27:51.081Z,1.45
2023-09-03T09:30:21.099Z,1.20
2023-09-03T09:32:49.044Z,1.70
2023-09-03T09:35:26.204Z,1.35
2023-09-03T09:37:52.848Z,1.52
2023-09-03T09:40:28.631Z,1.20
2023-09-03T09:42:58.050Z,1.40
2023-09-03T09:45:25.048Z,1.42
2023-09-03T09:48:07.797Z,1.30
2023-09-03T09:50:40.095Z,1.10
2023-09-03T09:53:21.563Z,1.02
2023-09-03T09:55:48.539Z,1.00
2023-09-03T09:58:17.256Z,1.48
2023-09-03T10:00:44.553Z,1.52
2023-09-03T10:03:16.811Z,1.10
2023-09-03T10:05:51.057Z,1.10
2023-09-03T10:08:18.078Z,1.20
2023-09-03T10:10:45.292Z,1.42
2023-09-03T10:13:12.955Z,1.55
2023-09-03T10:15:41.342Z,1.55
2023-09-03T10:18:10.191Z,1.42
2023-09-03T10:20:38.245Z,1.75
2023-09-03T10:23:06.401Z,1.77
2023-09-03T10:25:35.355Z,2.10
2023-09-03T10:30:41.967Z,2.20
2023-09-03T10:33:10.714Z,1.45
2023-09-03T10:35:37.836Z,1.97
2023-09-03T10:38:04.699Z,1.40
2023-09-03T10:40:34.096Z,1.55
2023-09-03T10:43:20.180Z,1.45
2023-09-03T10:46:14.366Z,1.85
2023-09-03T10:48:41.834Z,1.83
2023-09-03T10:51:09.273Z,1.80
2023-09-03T10:53:43.121Z,1.90
2023-09-03T10:56:15.588Z,1.92
2023-09-03T10:59:09.088Z,1.88
2023-09-03T11:01:36.460Z,1.92
2023-09-03T11:04:04.860Z,1.70
2023-09-03T11:06:34.241Z,1.50
2023-09-03T11:09:00.967Z,2.65
2023-09-03T11:11:34.946Z,1.50
2023-09-03T11:14:01.822Z,1.45
2023-09-03T11:16:36.443Z,1.80
2023-09-03T11:19:05.633Z,1.83
2023-09-03T11:21:32.971Z,1.60
2023-09-03T11:24:19.042Z,2.15
2023-09-03T11:26:46.710Z,1.90
2023-09-03T11:29:24.989Z,1.60
2023-09-03T11:31:52.869Z,1.52
2023-09-03T11:34:23.648Z,1.77
2023-09-03T11:36:52.285Z,2.25
2023-09-03T11:39:19.566Z,1.50
2023-09-03T11:41:47.675Z,1.65
2023-09-03T11:44:16.101Z,1.90
2023-09-03T11:46:57.896Z,1.70
2023-09-03T11:49:25.163Z,1.80
2023-09-03T11:51:53.865Z,1.90
2023-09-03T11:54:24.746Z,2.80
2023-09-03T11:56:56.428Z,1.80
2023-09-03T11:59:23.292Z,2.15
2023-09-03T12:01:51.141Z,1.90
2023-09-03T12:04:17.894Z,1.50
2023-09-03T12:06:45.425Z,1.67
2023-09-03T12:09:12.288Z,1.70
2023-09-03T12:11:39.295Z,1.60
2023-09-03T12:14:11.507Z,2.00
2023-09-03T12:16:48.889Z,2.00
2023-09-03T12:19:15.600Z,1.75
2023-09-03T12:21:42.687Z,1.90
2023-09-03T12:24:09.902Z,2.20
2023-09-03T12:26:37.303Z,1.38
2023-09-03T12:29:06.113Z,1.88
2023-09-03T12:31:45.073Z,1.63
2023-09-03T12:36:55.478Z,1.73
2023-09-03T12:39:36.733Z,1.40
2023-09-03T12:42:08.286Z,1.30
2023-09-03T12:44:36.485Z,1.70
2023-09-03T12:47:06.705Z,1.73
2023-09-03T12:49:33.980Z,1.60
2023-09-03T12:52:00.615Z,1.40
2023-09-03T12:54:29.474Z,1.55
2023-09-03T12:56:56.143Z,1.50
2023-09-03T12:59:23.538Z,2.10
2023-09-03T13:01:50.334Z,1.52
2023-09-03T13:04:17.689Z,1.63
2023-09-03T13:06:44.335Z,1.58
2023-09-03T13:09:12.098Z,1.20
2023-09-03T13:11:39.010Z,1.40
2023-09-03T13:14:06.863Z,1.20
2023-09-03T13:16:34.329Z,1.48
2023-09-03T13:19:02.043Z,1.33
2023-09-03T13:21:28.965Z,1.00
2023-09-03T13:23:56.281Z,1.23
2023-09-03T13:26:22.932Z,1.55
2023-09-03T13:28:50.171Z,1.30
2023-09-03T13:31:22.680Z,1.20
2023-09-03T13:33:49.517Z,1.30
2023-09-03T13:36:18.620Z,1.20
2023-09-03T13:38:46.368Z,1.40
2023-09-03T13:41:13.701Z,1.02
2023-09-03T13:43:43.158Z,1.20
2023-09-03T13:46:10.677Z,1.08
2023-09-03T13:48:37.901Z,1.15
2023-09-03T13:51:12.646Z,1.30
2023-09-03T13:53:39.627Z,1.15
2023-09-03T13:56:08.245Z,0.95
2023-09-03T13:58:35.788Z,1.10
2023-09-03T14:01:12.685Z,0.90
2023-09-03T14:03:39.493Z,1.00
2023-09-03T14:06:08.106Z,0.90
2023-09-03T14:08:35.199Z,0.85
2023-09-03T14:11:02.680Z,1.42
2023-09-03T14:13:29.553Z,1.00
2023-09-03T14:15:56.897Z,1.00
2023-09-03T14:18:24.917Z,1.27
2023-09-03T14:20:52.757Z,1.10
2023-09-03T14:23:19.689Z,0.90
2023-09-03T14:25:48.903Z,1.00
2023-09-03T14:28:15.627Z,1.20
2023-09-03T14:30:42.751Z,1.35
2023-09-03T14:33:10.196Z,1.00
2023-09-03T14:35:37.016Z,1.13
2023-09-03T14:38:04.448Z,1.23
2023-09-03T14:40:31.144Z,1.00
2023-09-03T14:42:59.102Z,1.13
2023-09-03T14:45:26.527Z,1.20
2023-09-03T14:47:53.953Z,1.17
2023-09-03T14:50:21.223Z,1.00
2023-09-03T14:52:48.541Z,1.10
2023-09-03T14:55:15.598Z,1.58
2023-09-03T14:57:42.912Z,1.73
2023-09-03T15:00:10.579Z,1.30
2023-09-03T15:02:37.683Z,1.52
2023-09-03T15:05:04.633Z,1.13
2023-09-03T15:07:32.220Z,1.00
2023-09-03T15:10:00.516Z,1.13
2023-09-03T15:12:27.937Z,1.52
2023-09-03T15:14:54.631Z,1.52
2023-09-03T15:17:21.549Z,1.00
2023-09-03T15:19:49.450Z,1.13
2023-09-03T15:22:16.147Z,1.30
2023-09-03T15:24:44.645Z,1.02
2023-09-03T15:27:11.295Z,1.52
2023-09-03T15:29:38.605Z,0.95
2023-09-03T15:32:06.645Z,1.02
2023-09-03T15:34:34.026Z,1.10
2023-09-03T15:37:00.762Z,1.30
2023-09-03T15:39:27.838Z,1.27
2023-09-03T15:41:54.479Z,1.08
2023-09-03T15:44:21.603Z,1.08
2023-09-03T15:46:48.542Z,1.55
2023-09-03T15:49:18.563Z,1.10
2023-09-03T15:51:48.437Z,1.30
2023-09-03T15:54:17.897Z,1.27
2023-09-03T15:56:45.897Z,1.33
2023-09-03T15:59:12.947Z,1.52
2023-09-03T16:01:39.608Z,1.50
2023-09-03T16:04:07.198Z,1.40
2023-09-03T16:06:33.966Z,1.33
2023-09-03T16:09:00.909Z,1.27
2023-09-03T16:11:27.968Z,2.00
2023-09-03T16:13:54.616Z,2.10
2023-09-03T16:16:22.099Z,1.98
2023-09-03T16:18:48.973Z,1.90
2023-09-03T16:21:16.248Z,2.67
2023-09-03T16:23:42.883Z,3.08
2023-09-03T16:26:10.290Z,2.90
2023-09-03T16:28:39.047Z,2.30
2023-09-03T16:31:06.831Z,1.77
2023-09-03T16:33:33.535Z,3.25
2023-09-03T16:36:02.069Z,3.28
2023-09-03T16:38:29.208Z,10.02
2023-09-03T16:40:58.684Z,4.17
2023-09-03T16:43:25.874Z,2.00
2023-09-03T16:45:52.984Z,2.95
2023-09-03T16:48:19.692Z,2.47
2023-09-03T16:50:46.758Z,1.95
2023-09-03T16:53:13.460Z,2.55
2023-09-03T16:55:41.587Z,3.10
2023-09-03T16:58:08.342Z,1.77
2023-09-03T17:00:35.497Z,1.88
2023-09-03T17:03:02.272Z,1.80
2023-09-03T17:05:29.298Z,1.60
2023-09-03T17:07:59.403Z,1.80
2023-09-03T17:10:26.999Z,1.75
2023-09-03T17:12:55.093Z,1.50
2023-09-03T17:15:22.071Z,2.20
2023-09-03T17:17:49.279Z,1.90
2023-09-03T17:20:16.649Z,1.88
2023-09-03T17:22:44.324Z,2.42
2023-09-03T17:25:11.268Z,2.55
2023-09-03T17:27:38.529Z,1.90
2023-09-03T17:30:05.750Z,1.80
2023-09-03T17:32:32.743Z,2.22
2023-09-03T17:34:59.467Z,1.52
2023-09-03T17:37:27.390Z,2.25
2023-09-03T17:39:54.756Z,3.78
2023-09-03T17:42:21.493Z,3.38
2023-09-03T17:44:48.208Z,3.03
2023-09-03T17:47:15.559Z,3.85
2023-09-03T17:49:42.712Z,3.05
2023-09-03T17:52:09.707Z,3.97
2023-09-03T17:54:36.402Z,4.15
2023-09-03T17:57:05.556Z,6.35
2023-09-03T17:59:32.222Z,4.07
2023-09-03T18:02:05.538Z,2.70
2023-09-03T18:04:33.836Z,3.20
2023-09-03T18:07:01.498Z,2.38
2023-09-03T18:09:30.885Z,3.03
2023-09-03T18:11:58.468Z,4.55
2023-09-03T18:14:25.147Z,4.72
2023-09-03T18:16:52.213Z,5.05
2023-09-03T18:19:19.041Z,4.35
2023-09-03T18:21:46.413Z,3.80
2023-09-03T18:24:13.112Z,2.42
2023-09-03T18:26:40.435Z,2.30
2023-09-03T18:29:07.299Z,2.10
2023-09-03T18:31:34.736Z,2.55
2023-09-03T18:34:01.459Z,2.13
2023-09-03T18:36:28.459Z,2.80
2023-09-03T18:38:55.767Z,2.50
2023-09-03T18:41:22.768Z,2.70
2023-09-03T18:43:49.554Z,2.63
2023-09-03T18:46:16.513Z,3.03
2023-09-03T18:48:43.796Z,1.98
2023-09-03T18:51:10.457Z,2.47
2023-09-03T18:53:37.795Z,1.67
2023-09-03T18:56:06.254Z,2.03
2023-09-03T18:58:34.379Z,2.40
2023-09-03T19:01:08.633Z,2.38
2023-09-03T19:03:36.316Z,2.10
2023-09-03T19:06:03.745Z,2.65
2023-09-03T19:08:31.220Z,2.33
2023-09-03T19:11:01.598Z,2.03
2023-09-03T19:13:28.637Z,2.03
2023-09-03T19:15:56.976Z,2.03
2023-09-03T19:18:25.072Z,2.00
2023-09-03T19:20:53.642Z,1.80
2023-09-03T19:23:21.681Z,1.67
2023-09-03T19:25:51.692Z,2.10
2023-09-03T19:28:21.797Z,1.80
2023-09-03T19:30:51.082Z,1.58
2023-09-03T19:33:22.282Z,1.70
2023-09-03T19:35:57.381Z,1.60
2023-09-03T19:38:26.348Z,1.80
2023-09-03T19:40:53.066Z,2.08
2023-09-03T19:43:26.674Z,2.10
2023-09-03T19:45:57.917Z,1.90
2023-09-03T19:48:26.436Z,1.73
2023-09-03T19:50:54.421Z,1.52
2023-09-03T19:53:21.813Z,1.95
2023-09-03T19:55:48.537Z,2.00
2023-09-03T19:58:16.148Z,2.00
2023-09-03T20:00:43.754Z,1.80
2023-09-03T20:03:11.295Z,1.52
2023-09-03T20:05:38.954Z,1.85
2023-09-03T20:08:06.835Z,2.40
2023-09-03T20:10:38.047Z,1.80
2023-09-03T20:13:06.732Z,1.63
2023-09-03T20:15:33.839Z,2.00
2023-09-03T20:18:00.713Z,1.88
2023-09-03T20:20:28.431Z,1.40
2023-09-03T20:23:00.397Z,1.88
2023-09-03T20:25:27.851Z,1.60
2023-09-03T20:27:54.510Z,2.00
